createdAt,value
2022-07-26T00:01:34.669Z,19.89
2022-07-26T00:04:20.015Z,19.94
2022-07-26T00:07:05.147Z,19.82
2022-07-26T00:09:50.534Z,19.61
2022-07-26T00:12:36.185Z,19.55
2022-07-26T00:15:21.520Z,19.56
2022-07-26T00:18:11.919Z,19.63
2022-07-26T00:20:57.588Z,19.50
2022-07-26T00:23:43.469Z,19.48
2022-07-26T00:26:28.674Z,19.55
2022-07-26T00:29:14.021Z,19.51
2022-07-26T00:31:59.517Z,19.54
2022-07-26T00:34:44.703Z,19.54
2022-07-26T00:37:30.360Z,19.56
2022-07-26T00:40:16.435Z,19.55
2022-07-26T00:43:01.883Z,19.55
2022-07-26T00:45:47.158Z,19.64
2022-07-26T00:48:32.575Z,19.72
2022-07-26T00:51:18.047Z,19.79
2022-07-26T00:54:05.591Z,19.77
2022-07-26T00:56:54.829Z,19.74
2022-07-26T00:59:40.476Z,19.69
2022-07-26T01:02:25.726Z,19.70
2022-07-26T01:05:11.176Z,19.76
2022-07-26T01:07:57.517Z,19.75
2022-07-26T01:10:43.808Z,19.81
2022-07-26T01:13:33.249Z,19.81
2022-07-26T01:16:20.538Z,19.77
2022-07-26T01:19:05.792Z,19.74
2022-07-26T01:21:51.688Z,19.78
2022-07-26T01:24:36.987Z,19.81
2022-07-26T01:27:22.322Z,19.84
2022-07-26T01:30:10.240Z,19.89
2022-07-26T01:32:55.669Z,19.94
2022-07-26T01:35:41.410Z,19.97
2022-07-26T01:38:27.741Z,19.99
2022-07-26T01:41:13.426Z,20.02
2022-07-26T01:43:58.869Z,20.00
2022-07-26T01:46:44.216Z,19.95
2022-07-26T01:49:29.548Z,19.89
2022-07-26T01:52:15.190Z,19.84
2022-07-26T01:55:00.483Z,19.82
2022-07-26T01:57:46.464Z,19.80
2022-07-26T02:00:32.078Z,19.78
2022-07-26T02:03:17.885Z,19.71
2022-07-26T02:06:12.239Z,19.68
2022-07-26T02:09:00.237Z,19.70
2022-07-26T02:11:48.722Z,19.73
2022-07-26T02:14:34.215Z,19.75
2022-07-26T02:17:20.087Z,19.73
2022-07-26T02:20:06.304Z,19.73
2022-07-26T02:22:51.964Z,19.73
2022-07-26T02:25:37.472Z,19.66
2022-07-26T02:28:23.617Z,19.62
2022-07-26T02:31:09.267Z,19.58
2022-07-26T02:33:57.141Z,19.55
2022-07-26T02:36:51.680Z,19.50
2022-07-26T02:39:37.396Z,19.44
2022-07-26T02:42:22.691Z,19.44
2022-07-26T02:45:08.685Z,19.41
2022-07-26T02:47:55.241Z,19.38
2022-07-26T02:50:40.973Z,19.40
2022-07-26T02:53:26.460Z,19.39
2022-07-26T02:56:11.800Z,19.38
2022-07-26T02:58:57.245Z,19.36
2022-07-26T03:01:42.566Z,19.39
2022-07-26T03:04:27.941Z,19.38
2022-07-26T03:07:13.552Z,19.36
2022-07-26T03:09:59.274Z,19.35
2022-07-26T03:12:45.330Z,19.36
2022-07-26T03:15:31.016Z,19.33
2022-07-26T03:18:16.250Z,19.34
2022-07-26T03:21:02.003Z,19.30
2022-07-26T03:23:47.401Z,19.30
2022-07-26T03:26:32.973Z,19.27
2022-07-26T03:29:18.349Z,19.27
2022-07-26T03:32:03.953Z,19.25
2022-07-26T03:34:49.826Z,19.24
2022-07-26T03:37:45.031Z,19.25
2022-07-26T03:40:32.009Z,19.21
2022-07-26T03:43:22.560Z,19.19
2022-07-26T03:46:08.767Z,19.16
2022-07-26T03:48:54.414Z,19.16
2022-07-26T03:51:39.737Z,19.13
2022-07-26T03:54:25.356Z,19.10
2022-07-26T03:57:10.707Z,19.10
2022-07-26T03:59:56.128Z,19.11
2022-07-26T04:02:41.595Z,19.15
2022-07-26T04:05:26.817Z,19.16
2022-07-26T04:08:13.324Z,19.17
2022-07-26T04:10:58.581Z,19.18
2022-07-26T04:13:43.995Z,19.17
2022-07-26T04:16:32.352Z,19.17
2022-07-26T04:19:17.738Z,19.16
2022-07-26T04:22:02.937Z,19.15
2022-07-26T04:24:48.017Z,19.16
2022-07-26T04:27:33.894Z,19.21
2022-07-26T04:30:19.625Z,19.21
2022-07-26T04:33:05.754Z,19.22
2022-07-26T04:35:51.753Z,19.23
2022-07-26T04:38:37.485Z,19.24
2022-07-26T04:41:22.703Z,19.23
2022-07-26T04:44:08.265Z,19.26
2022-07-26T04:46:53.451Z,19.30
2022-07-26T04:49:38.942Z,19.32
2022-07-26T04:52:24.448Z,19.38
2022-07-26T04:55:10.650Z,19.43
2022-07-26T04:57:55.901Z,19.51
2022-07-26T05:01:09.396Z,19.57
2022-07-26T05:03:46.872Z,19.66
2022-07-26T05:06:34.224Z,19.74
2022-07-26T05:09:19.459Z,19.85
2022-07-26T05:12:04.837Z,19.88
2022-07-26T05:14:52.711Z,19.91
2022-07-26T05:17:42.907Z,19.94
2022-07-26T05:20:28.407Z,19.88
2022-07-26T05:23:13.705Z,19.80
2022-07-26T05:25:58.889Z,19.80
2022-07-26T05:28:44.432Z,19.87
2022-07-26T05:31:29.573Z,19.89
2022-07-26T05:34:14.880Z,20.01
2022-07-26T05:37:00.149Z,20.10
2022-07-26T05:39:45.538Z,20.13
2022-07-26T05:42:31.223Z,20.07
2022-07-26T05:45:16.698Z,20.15
2022-07-26T05:48:01.989Z,20.19
2022-07-26T05:50:47.315Z,20.30
2022-07-26T05:53:35.499Z,20.39
2022-07-26T05:56:20.720Z,20.48
2022-07-26T05:59:06.015Z,20.44
2022-07-26T06:01:51.125Z,20.49
2022-07-26T06:04:36.895Z,20.49
2022-07-26T06:07:22.515Z,20.68
2022-07-26T06:10:08.175Z,20.85
2022-07-26T06:12:53.703Z,21.04
2022-07-26T06:15:39.163Z,21.14
2022-07-26T06:18:25.007Z,21.10
2022-07-26T06:21:10.142Z,21.24
2022-07-26T06:23:57.470Z,21.19
2022-07-26T06:26:42.659Z,21.19
2022-07-26T06:29:32.183Z,21.22
2022-07-26T06:32:17.922Z,21.33
2022-07-26T06:35:03.581Z,21.24
2022-07-26T06:37:48.640Z,21.33
2022-07-26T06:40:34.722Z,21.46
2022-07-26T06:43:20.758Z,21.52
2022-07-26T06:46:06.377Z,21.47
2022-07-26T06:48:56.742Z,21.38
2022-07-26T06:51:42.636Z,21.43
2022-07-26T06:54:28.043Z,21.39
2022-07-26T06:57:13.668Z,21.36
2022-07-26T06:59:58.807Z,21.32
2022-07-26T07:02:44.287Z,21.43
2022-07-26T07:05:31.140Z,21.49
2022-07-26T07:08:17.452Z,21.69
2022-07-26T07:11:03.155Z,21.72
2022-07-26T07:13:50.635Z,21.61
2022-07-26T07:16:35.933Z,21.60
2022-07-26T07:19:34.595Z,21.50
2022-07-26T07:22:21.982Z,21.53
2022-07-26T07:25:09.720Z,21.48
2022-07-26T07:27:55.782Z,21.46
2022-07-26T07:30:41.184Z,21.53
2022-07-26T07:33:26.317Z,21.69
2022-07-26T07:36:21.847Z,21.84
2022-07-26T07:39:11.140Z,21.91
2022-07-26T07:42:02.801Z,21.91
2022-07-26T07:44:48.014Z,21.79
2022-07-26T07:47:34.585Z,21.90
2022-07-26T07:50:20.149Z,22.08
2022-07-26T07:53:09.917Z,22.13
2022-07-26T07:55:55.291Z,22.37
2022-07-26T07:58:41.234Z,22.51
2022-07-26T08:01:39.801Z,22.65
2022-07-26T08:04:26.367Z,22.48
2022-07-26T08:07:12.744Z,22.89
2022-07-26T08:10:01.720Z,23.19
2022-07-26T08:12:47.082Z,23.35
2022-07-26T08:15:39.133Z,23.21
2022-07-26T08:18:25.117Z,23.23
2022-07-26T08:21:10.692Z,23.18
2022-07-26T08:23:57.715Z,23.03
2022-07-26T08:26:42.897Z,22.97
2022-07-26T08:29:28.235Z,22.95
2022-07-26T08:32:13.675Z,22.86
2022-07-26T08:35:17.388Z,22.66
2022-07-26T08:38:10.034Z,22.66
2022-07-26T08:41:02.581Z,22.81
2022-07-26T08:44:12.798Z,22.99
2022-07-26T08:47:39.869Z,23.29
2022-07-26T08:51:01.695Z,23.55
2022-07-26T08:54:19.724Z,23.69
2022-07-26T08:57:25.606Z,24.04
2022-07-26T09:00:31.089Z,23.75
2022-07-26T09:03:32.522Z,23.57
2022-07-26T09:06:21.249Z,23.56
2022-07-26T09:09:12.742Z,23.51
2022-07-26T09:11:58.077Z,23.32
2022-07-26T09:14:43.368Z,23.62
2022-07-26T09:17:44.705Z,24.07
2022-07-26T09:20:32.050Z,24.04
2022-07-26T09:23:17.725Z,23.98
2022-07-26T09:26:05.189Z,23.57
2022-07-26T09:29:14.939Z,23.33
2022-07-26T09:32:17.479Z,23.41
2022-07-26T09:35:44.179Z,23.64
2022-07-26T09:38:18.228Z,23.57
2022-07-26T09:41:03.460Z,23.40
2022-07-26T09:43:53.915Z,23.51
2022-07-26T09:46:52.245Z,23.80
2022-07-26T09:49:41.909Z,24.16
2022-07-26T09:52:29.570Z,24.60
2022-07-26T09:55:16.400Z,24.97
2022-07-26T09:58:03.909Z,25.34
2022-07-26T10:00:49.556Z,25.45
2022-07-26T10:03:35.753Z,25.49
2022-07-26T10:06:21.057Z,25.15
2022-07-26T10:09:08.309Z,24.95
2022-07-26T10:12:04.005Z,24.71
2022-07-26T10:14:51.860Z,24.47
2022-07-26T10:17:37.337Z,24.27
2022-07-26T10:20:46.301Z,24.15
2022-07-26T10:23:34.933Z,24.21
2022-07-26T10:26:32.952Z,24.39
2022-07-26T10:29:19.245Z,24.62
2022-07-26T10:32:16.032Z,24.68
2022-07-26T10:35:01.633Z,24.86
2022-07-26T10:38:13.062Z,24.69
2022-07-26T10:41:08.403Z,24.65
2022-07-26T10:44:18.008Z,24.42
2022-07-26T10:47:12.176Z,24.28
2022-07-26T10:49:58.950Z,24.14
2022-07-26T10:52:59.056Z,24.31
2022-07-26T10:55:57.529Z,24.45
2022-07-26T10:58:43.787Z,24.34
2022-07-26T11:01:37.788Z,24.02
2022-07-26T11:04:23.902Z,23.90
2022-07-26T11:07:09.748Z,23.65
2022-07-26T11:09:59.498Z,23.60
2022-07-26T11:12:44.519Z,23.78
2022-07-26T11:15:30.579Z,24.15
2022-07-26T11:18:21.394Z,24.39
2022-07-26T11:21:12.970Z,24.70
2022-07-26T11:24:05.108Z,24.97
2022-07-26T11:26:50.437Z,25.35
2022-07-26T11:29:40.843Z,25.75
2022-07-26T11:32:26.774Z,25.93
2022-07-26T11:35:12.046Z,25.65
2022-07-26T11:38:07.766Z,25.38
2022-07-26T11:40:57.033Z,25.23
2022-07-26T11:43:42.777Z,25.00
2022-07-26T11:46:39.616Z,24.77
2022-07-26T11:50:00.537Z,24.65
2022-07-26T11:52:34.002Z,24.59
2022-07-26T11:55:27.322Z,24.51
2022-07-26T11:58:12.985Z,24.49
2022-07-26T12:00:58.874Z,24.30
2022-07-26T12:03:46.627Z,24.04
2022-07-26T12:06:38.897Z,23.88
2022-07-26T12:09:47.718Z,23.80
2022-07-26T12:12:33.252Z,23.74
2022-07-26T12:15:18.447Z,23.55
2022-07-26T12:18:03.610Z,23.20
2022-07-26T12:21:04.168Z,21.92
2022-07-26T12:23:53.000Z,20.42
2022-07-26T12:26:40.403Z,19.42
2022-07-26T12:29:34.091Z,19.04
2022-07-26T12:32:21.111Z,18.72
2022-07-26T12:35:09.425Z,18.60
2022-07-26T12:37:55.602Z,18.14
2022-07-26T12:40:42.058Z,17.91
2022-07-26T12:43:27.246Z,17.91
2022-07-26T12:46:13.125Z,17.99
2022-07-26T12:49:00.652Z,17.95
2022-07-26T12:51:46.744Z,17.97
2022-07-26T12:54:32.681Z,18.00
2022-07-26T12:57:19.822Z,17.99
2022-07-26T13:00:07.979Z,17.94
2022-07-26T13:02:55.320Z,17.93
2022-07-26T13:05:41.412Z,18.00
2022-07-26T13:08:26.743Z,18.08
2022-07-26T13:11:12.302Z,18.10
2022-07-26T13:13:59.475Z,18.26
2022-07-26T13:16:45.145Z,18.34
2022-07-26T13:19:31.870Z,18.25
2022-07-26T13:22:17.711Z,18.23
2022-07-26T13:25:08.970Z,18.31
2022-07-26T13:28:04.286Z,18.51
2022-07-26T13:30:53.658Z,18.55
2022-07-26T13:34:12.234Z,18.72
2022-07-26T13:37:08.129Z,18.99
2022-07-26T13:42:55.583Z,19.27
2022-07-26T13:45:42.068Z,19.31
2022-07-26T13:48:31.548Z,19.32
2022-07-26T13:51:18.124Z,19.35
2022-07-26T13:54:06.165Z,19.41
2022-07-26T13:56:51.704Z,19.68
2022-07-26T13:59:37.428Z,19.93
2022-07-26T14:02:22.910Z,20.14
2022-07-26T14:05:09.145Z,20.20
2022-07-26T14:07:55.208Z,20.31
2022-07-26T14:10:40.916Z,20.33
2022-07-26T14:13:26.679Z,20.43
2022-07-26T14:16:12.479Z,20.41
2022-07-26T14:18:58.776Z,20.53
2022-07-26T14:21:48.949Z,20.59
2022-07-26T14:24:45.325Z,20.75
2022-07-26T14:27:30.622Z,20.81
2022-07-26T14:30:15.999Z,20.73
2022-07-26T14:33:01.461Z,20.77
2022-07-26T14:35:46.930Z,20.78
2022-07-26T14:38:32.435Z,20.76
2022-07-26T14:41:18.289Z,20.88
2022-07-26T14:44:04.441Z,21.04
2022-07-26T14:46:49.904Z,21.23
2022-07-26T14:49:35.058Z,21.21
2022-07-26T14:52:20.384Z,21.28
2022-07-26T14:55:06.434Z,21.32
2022-07-26T14:57:58.155Z,21.27
2022-07-26T15:00:43.913Z,21.29
2022-07-26T15:03:30.943Z,21.48
2022-07-26T15:06:16.717Z,21.76
2022-07-26T15:09:02.217Z,21.89
2022-07-26T15:11:49.294Z,22.08
2022-07-26T15:14:36.030Z,22.25
2022-07-26T15:17:21.182Z,22.29
2022-07-26T15:20:07.401Z,22.29
2022-07-26T15:22:53.946Z,22.04
2022-07-26T15:25:39.237Z,21.90
2022-07-26T15:28:24.649Z,21.79
2022-07-26T15:31:11.098Z,21.82
2022-07-26T15:33:56.246Z,21.72
2022-07-26T15:36:41.973Z,21.67
2022-07-26T15:39:27.445Z,21.65
2022-07-26T15:42:13.980Z,21.67
2022-07-26T15:45:01.099Z,21.80
2022-07-26T15:47:59.038Z,21.81
2022-07-26T15:50:49.887Z,21.84
2022-07-26T15:53:36.031Z,21.81
2022-07-26T15:56:21.353Z,21.91
2022-07-26T15:59:09.425Z,21.96
2022-07-26T16:01:55.123Z,22.06
2022-07-26T16:04:40.306Z,22.11
2022-07-26T16:07:26.307Z,22.09
2022-07-26T16:10:13.354Z,22.09
2022-07-26T16:12:59.122Z,22.06
2022-07-26T16:15:45.095Z,22.08
2022-07-26T16:18:30.082Z,22.12
2022-07-26T16:21:15.461Z,22.14
2022-07-26T16:24:06.180Z,22.00
2022-07-26T16:26:53.252Z,21.95
2022-07-26T16:29:38.757Z,21.90
2022-07-26T16:32:24.240Z,21.84
2022-07-26T16:35:09.645Z,21.82
2022-07-26T16:37:55.128Z,21.86
2022-07-26T16:40:40.340Z,21.96
2022-07-26T16:43:31.322Z,22.06
2022-07-26T16:46:17.490Z,22.22
2022-07-26T16:49:02.994Z,22.31
2022-07-26T16:51:50.931Z,22.43
2022-07-26T16:54:36.393Z,22.54
2022-07-26T16:57:21.663Z,22.55
2022-07-26T17:00:10.416Z,22.46
2022-07-26T17:02:56.563Z,22.43
2022-07-26T17:05:43.595Z,22.42
2022-07-26T17:08:32.189Z,22.46
2022-07-26T17:11:17.547Z,22.47
2022-07-26T17:14:10.235Z,22.45
2022-07-26T17:17:03.085Z,22.43
2022-07-26T17:19:55.965Z,22.47
2022-07-26T17:22:41.155Z,22.49
2022-07-26T17:25:26.470Z,22.37
2022-07-26T17:28:12.241Z,22.23
2022-07-26T17:30:57.568Z,22.20
2022-07-26T17:33:42.751Z,22.16
2022-07-26T17:36:38.445Z,22.11
2022-07-26T17:39:28.333Z,22.08
2022-07-26T17:42:32.594Z,22.09
2022-07-26T17:45:17.963Z,22.03
2022-07-26T17:48:06.339Z,21.93
2022-07-26T17:50:52.257Z,21.86
2022-07-26T17:53:37.545Z,21.77
2022-07-26T17:56:22.850Z,21.72
2022-07-26T17:59:08.744Z,21.62
2022-07-26T18:01:54.251Z,21.52
2022-07-26T18:04:39.862Z,21.46
2022-07-26T18:07:25.767Z,21.41
2022-07-26T18:10:11.540Z,21.35
2022-07-26T18:12:56.779Z,21.31
2022-07-26T18:15:42.255Z,21.27
2022-07-26T18:18:27.589Z,21.23
2022-07-26T18:21:14.894Z,21.18
2022-07-26T18:24:16.462Z,21.11
2022-07-26T18:27:02.639Z,21.06
2022-07-26T18:29:48.145Z,21.04
2022-07-26T18:32:34.809Z,20.99
2022-07-26T18:35:20.418Z,20.92
2022-07-26T18:38:06.774Z,20.89
2022-07-26T18:40:55.094Z,20.85
2022-07-26T18:43:40.455Z,20.83
2022-07-26T18:46:25.661Z,20.82
2022-07-26T18:49:19.686Z,20.79
2022-07-26T18:52:08.763Z,20.74
2022-07-26T18:54:54.413Z,20.68
2022-07-26T18:57:40.987Z,20.62
2022-07-26T19:00:26.186Z,20.58
2022-07-26T19:03:11.659Z,20.51
2022-07-26T19:05:56.829Z,20.49
2022-07-26T19:08:42.394Z,20.43
2022-07-26T19:11:29.551Z,20.39
2022-07-26T19:14:17.375Z,20.37
2022-07-26T19:17:02.531Z,20.35
2022-07-26T19:19:47.760Z,20.28
2022-07-26T19:22:33.125Z,20.24
2022-07-26T19:25:18.829Z,20.20
2022-07-26T19:28:09.228Z,20.18
2022-07-26T19:30:54.598Z,20.12
2022-07-26T19:33:39.828Z,20.08
2022-07-26T19:36:25.343Z,20.06
2022-07-26T19:39:12.003Z,20.01
2022-07-26T19:41:57.545Z,19.94
2022-07-26T19:44:45.649Z,19.94
2022-07-26T19:47:31.834Z,19.87
2022-07-26T19:50:17.115Z,19.86
2022-07-26T19:53:02.202Z,19.86
2022-07-26T19:55:47.761Z,19.85
2022-07-26T19:58:33.429Z,19.80
2022-07-26T20:01:19.164Z,19.74
2022-07-26T20:04:04.338Z,19.71
2022-07-26T20:06:49.678Z,19.69
2022-07-26T20:09:35.052Z,19.66
2022-07-26T20:12:21.351Z,19.66
2022-07-26T20:15:08.185Z,19.66
2022-07-26T20:17:53.527Z,19.61
2022-07-26T20:20:39.359Z,19.58
2022-07-26T20:23:24.795Z,19.55
2022-07-26T20:26:10.938Z,19.52
2022-07-26T20:28:59.096Z,19.46
2022-07-26T20:31:44.807Z,19.43
2022-07-26T20:34:30.299Z,19.38
2022-07-26T20:37:15.556Z,19.34
2022-07-26T20:40:09.215Z,19.30
2022-07-26T20:42:58.139Z,19.26
2022-07-26T20:45:44.591Z,19.21
2022-07-26T20:48:32.638Z,19.18
2022-07-26T20:51:21.675Z,19.12
2022-07-26T20:54:14.531Z,19.12
2022-07-26T20:57:19.188Z,19.16
2022-07-26T21:00:08.016Z,19.17
2022-07-26T21:02:53.753Z,19.16
2022-07-26T21:05:38.959Z,19.12
2022-07-26T21:08:24.220Z,19.06
2022-07-26T21:11:09.617Z,19.02
2022-07-26T21:13:55.333Z,18.95
2022-07-26T21:16:40.641Z,18.91
2022-07-26T21:19:27.617Z,18.89
2022-07-26T21:27:07.798Z,18.71
2022-07-26T21:30:12.148Z,18.63
2022-07-26T21:33:17.502Z,18.60
2022-07-26T21:36:21.238Z,18.64
2022-07-26T21:40:47.861Z,18.66
2022-07-26T21:42:18.523Z,18.67
2022-07-26T21:45:04.887Z,18.69
2022-07-26T21:47:50.152Z,18.70
2022-07-26T21:50:35.272Z,18.71
2022-07-26T21:53:22.278Z,18.69
2022-07-26T21:56:07.820Z,18.71
2022-07-26T21:58:53.934Z,18.69
2022-07-26T22:01:39.452Z,18.69
2022-07-26T22:04:25.182Z,18.60
2022-07-26T22:07:10.485Z,18.55
2022-07-26T22:09:55.644Z,18.53
2022-07-26T22:12:41.140Z,18.54
2022-07-26T22:15:26.576Z,18.56
2022-07-26T22:18:14.020Z,18.56
2022-07-26T22:20:59.316Z,18.56
2022-07-26T22:23:44.580Z,18.54
2022-07-26T22:26:31.123Z,18.52
2022-07-26T22:29:16.269Z,18.49
2022-07-26T22:32:03.101Z,18.48
2022-07-26T22:34:48.269Z,18.39
2022-07-26T22:37:33.495Z,18.37
2022-07-26T22:40:19.019Z,18.36
2022-07-26T22:43:04.575Z,18.34
2022-07-26T22:45:52.315Z,18.31
2022-07-26T22:48:42.225Z,18.33
2022-07-26T22:51:34.508Z,18.29
2022-07-26T22:54:24.476Z,18.28
2022-07-26T22:57:27.914Z,18.20
2022-07-26T23:00:36.019Z,18.15
2022-07-26T23:03:21.866Z,17.98
2022-07-26T23:06:31.423Z,17.98
2022-07-26T23:09:50.030Z,18.00
2022-07-26T23:12:40.075Z,17.90
2022-07-26T23:16:00.509Z,17.84
2022-07-26T23:18:51.426Z,17.80
2022-07-26T23:21:42.632Z,17.82
2022-07-26T23:24:30.779Z,17.74
2022-07-26T23:27:32.904Z,17.65
2022-07-26T23:30:18.390Z,17.67
2022-07-26T23:33:07.471Z,17.71
2022-07-26T23:35:59.460Z,17.73
2022-07-26T23:42:51.941Z,17.57
2022-07-26T23:45:44.392Z,17.62
2022-07-26T23:48:30.718Z,17.49
2022-07-26T23:51:16.043Z,17.41
2022-07-26T23:54:01.342Z,17.43
2022-07-26T23:56:46.668Z,17.49
2022-07-26T23:59:32.030Z,17.50
